Авиационная погода в Брянске

Регион: 
Погода METAR: 
UUBP 282200Z AUTO 07002MPS 9999 NCD 22/17 Q1020 RMK QFE747/0996
Время наблюдения
2022-06-28T22:00:00Z
Температура C
22.0
Точка росы
17.0
Направление ветра
70
Скорость ветра (узлы)
4
Метео видимость
6.21
Облачность
CLR
Нижняя граница облачности (футы)
Явления погоды
Условия полета
VFR
Аэропорт подробнее: 
CLR — нет облаков ниже 3000 м